Time;durP1;ratioP1;P1;durP2;ratioP2;P2;SDS_P1;SDS_P2;PMS_P1;PMS_P2;Temp;Humidity;BMP_temperature;BMP_pressure;BME280_temperature;BME280_humidity;BME280_pressure;Samples;Min_cycle;Max_cycle;Signal;HPM_P1;HPM_P2
2022/01/19 00:00:43;;;;;;;13.43;8.05;;;4.00;99.90;;;;;;6342698;22;20183;-51
2022/01/19 00:03:10;;;;;;;9.13;7.93;;;4.20;99.90;;;;;;6345063;22;20147;-51
2022/01/19 00:05:37;;;;;;;9.07;7.60;;;4.10;99.90;;;;;;6344690;22;20271;-52
2022/01/19 00:08:03;;;;;;;8.68;7.75;;;3.60;99.90;;;;;;6334379;22;20296;-51
2022/01/19 00:10:28;;;;;;;11.13;8.00;;;4.10;99.90;;;;;;6343256;22;20519;-51
2022/01/19 00:12:56;;;;;;;8.80;7.40;;;3.30;99.90;;;;;;6345085;22;20374;-50
2022/01/19 00:15:23;;;;;;;10.40;6.95;;;4.00;99.90;;;;;;6342110;22;20200;-51
2022/01/19 00:17:49;;;;;;;9.20;7.40;;;3.80;99.90;;;;;;6327759;22;20182;-50
2022/01/19 00:20:15;;;;;;;8.60;7.70;;;3.50;99.90;;;;;;6330628;22;20564;-51
2022/01/19 00:22:41;;;;;;;9.55;7.70;;;3.60;99.90;;;;;;6333916;22;20159;-50
2022/01/19 00:25:07;;;;;;;10.70;7.40;;;3.30;99.90;;;;;;6345526;22;20536;-50
2022/01/19 00:27:34;;;;;;;11.18;7.63;;;3.40;99.90;;;;;;6344432;22;20220;-50
2022/01/19 00:29:59;;;;;;;10.95;8.95;;;3.40;99.90;;;;;;6342251;22;20178;-50
2022/01/19 00:32:26;;;;;;;9.07;7.33;;;3.10;99.90;;;;;;6341987;22;20151;-50
2022/01/19 00:34:52;;;;;;;9.23;7.40;;;3.10;99.90;;;;;;6345075;22;20143;-52
2022/01/19 00:37:17;;;;;;;9.83;7.53;;;3.10;99.90;;;;;;6344467;22;20200;-52
2022/01/19 00:39:43;;;;;;;9.80;8.63;;;3.20;99.90;;;;;;6331683;22;20651;-51
2022/01/19 00:42:09;;;;;;;9.90;8.10;;;2.90;99.90;;;;;;6344498;22;20544;-51
2022/01/19 00:44:35;;;;;;;9.60;8.20;;;3.10;99.90;;;;;;6345049;22;20396;-51
2022/01/19 00:47:00;;;;;;;9.60;7.70;;;2.90;99.90;;;;;;6342086;22;20152;-51
2022/01/19 00:49:26;;;;;;;10.53;8.00;;;2.90;99.90;;;;;;6342787;22;20626;-51
2022/01/19 00:51:52;;;;;;;11.40;7.90;;;3.00;99.90;;;;;;6333006;22;20732;-51
2022/01/19 00:54:17;;;;;;;10.67;7.77;;;3.00;99.90;;;;;;6344579;22;20147;-51
2022/01/19 00:56:43;;;;;;;12.03;9.90;;;3.10;99.90;;;;;;6344411;22;20148;-52
2022/01/19 00:59:09;;;;;;;8.50;7.60;;;2.70;99.90;;;;;;6343357;22;20151;-51
2022/01/19 01:01:34;;;;;;;10.20;8.37;;;3.00;99.90;;;;;;6336110;22;20175;-51
2022/01/19 01:04:00;;;;;;;14.87;9.10;;;2.60;99.90;;;;;;6343752;22;20333;-51
2022/01/19 01:06:26;;;;;;;14.37;8.37;;;2.80;99.90;;;;;;6345050;22;20151;-50
2022/01/19 01:08:51;;;;;;;10.50;8.30;;;2.60;99.90;;;;;;6344616;22;20505;-51
2022/01/19 01:11:17;;;;;;;8.47;7.60;;;2.70;99.90;;;;;;6343815;22;20190;-52
2022/01/19 01:16:38;;;;;;;9.20;7.88;;;2.60;99.90;;;;;;6342679;22;20136;-51
2022/01/19 01:19:08;;;;;;;9.05;7.75;;;2.60;99.90;;;;;;6332762;22;20174;-52
2022/01/19 01:21:34;;;;;;;9.45;8.10;;;2.60;99.90;;;;;;6344133;22;20223;-51
2022/01/19 01:24:00;;;;;;;10.93;8.52;;;2.40;99.90;;;;;;6343242;22;20161;-52
2022/01/19 01:26:26;;;;;;;10.60;8.25;;;2.30;99.90;;;;;;6334721;22;20197;-52
2022/01/19 01:28:51;;;;;;;12.20;8.80;;;2.40;99.90;;;;;;6343869;22;20201;-52
2022/01/19 01:31:17;;;;;;;11.73;7.63;;;2.40;99.90;;;;;;6327620;22;20208;-51
2022/01/19 01:33:43;;;;;;;10.67;8.50;;;2.40;99.90;;;;;;6344841;22;20372;-51
2022/01/19 01:36:09;;;;;;;10.47;8.67;;;2.50;99.90;;;;;;6346855;22;20377;-52
2022/01/19 01:38:37;;;;;;;10.85;8.43;;;2.60;99.90;;;;;;6346128;22;20209;-50
2022/01/19 01:41:03;;;;;;;14.40;8.82;;;2.50;99.90;;;;;;6345392;22;20245;-50
2022/01/19 01:43:29;;;;;;;10.30;8.43;;;1.70;99.90;;;;;;6345344;22;20623;-50
2022/01/19 01:46:01;;;;;;;10.33;8.83;;;1.80;99.90;;;;;;6344485;22;20230;-52
2022/01/19 01:48:27;;;;;;;13.75;9.35;;;1.90;99.90;;;;;;6346066;22;20167;-50
2022/01/19 01:53:37;;;;;;;11.73;8.68;;;2.40;99.90;;;;;;6344086;22;20476;-50
2022/01/19 01:56:10;;;;;;;10.60;8.82;;;2.00;99.90;;;;;;6346620;22;20151;-50
2022/01/19 01:58:38;;;;;;;10.05;8.50;;;2.00;99.90;;;;;;6345385;22;20135;-51
2022/01/19 02:01:05;;;;;;;10.93;8.63;;;2.20;99.90;;;;;;6331384;22;20552;-51
2022/01/19 02:03:37;;;;;;;11.77;9.00;;;2.40;99.90;;;;;;6346161;22;20151;-50
2022/01/19 02:08:48;;;;;;;12.30;8.68;;;2.20;99.90;;;;;;6345347;22;20171;-51
2022/01/19 02:16:44;;;;;;;11.90;8.75;;;1.90;99.90;;;;;;6340106;22;20415;-50
2022/01/19 02:22:00;;;;;;;11.77;8.05;;;2.30;99.90;;;;;;6346287;22;20159;-50
2022/01/19 02:24:32;;;;;;;13.60;8.65;;;2.30;99.90;;;;;;6345468;22;20131;-50
2022/01/19 02:27:13;;;;;;;11.45;8.60;;;2.30;99.90;;;;;;6345698;22;20159;-50
2022/01/19 02:40:24;;;;;;;13.60;8.63;;;2.10;99.90;;;;;;6345960;22;20190;-50
2022/01/19 02:50:59;;;;;;;13.50;9.07;;;1.50;99.90;;;;;;6345634;22;20181;-50
2022/01/19 02:53:24;;;;;;;11.40;8.27;;;2.00;99.90;;;;;;6345497;22;20159;-49
2022/01/19 02:55:50;;;;;;;13.60;9.93;;;2.10;99.90;;;;;;6344320;22;20384;-50
2022/01/19 02:58:19;;;;;;;11.67;9.80;;;2.00;99.90;;;;;;6345884;22;20382;-50
2022/01/19 03:08:58;;;;;;;12.63;9.25;;;1.80;99.90;;;;;;6345541;22;20179;-51
2022/01/19 03:11:24;;;;;;;12.80;10.03;;;1.50;99.90;;;;;;6344252;22;20220;-50
2022/01/19 03:13:50;;;;;;;11.40;8.90;;;1.70;99.90;;;;;;6345686;22;20385;-51
2022/01/19 03:16:20;;;;;;;14.30;10.57;;;1.20;99.90;;;;;;6342001;22;20175;-51
2022/01/19 03:18:52;;;;;;;17.25;10.70;;;1.60;99.90;;;;;;6345588;22;20389;-50
2022/01/19 03:21:17;;;;;;;14.95;10.15;;;1.30;99.90;;;;;;6345522;22;20170;-51
2022/01/19 03:23:44;;;;;;;11.47;9.20;;;1.20;99.90;;;;;;6334986;22;20163;-51
2022/01/19 03:26:09;;;;;;;12.20;10.07;;;1.90;99.90;;;;;;6344208;22;20159;-50
2022/01/19 03:28:35;;;;;;;15.27;10.00;;;1.90;99.90;;;;;;6344677;22;20628;-51
2022/01/19 03:31:03;;;;;;;13.63;9.10;;;1.80;99.90;;;;;;6343553;22;20167;-51
2022/01/19 03:33:28;;;;;;;10.95;8.77;;;1.90;99.90;;;;;;6344871;22;20639;-51
2022/01/19 03:35:54;;;;;;;11.70;8.93;;;1.70;99.90;;;;;;6345481;22;20449;-50
2022/01/19 03:38:20;;;;;;;11.23;8.80;;;1.60;99.90;;;;;;6344644;22;20209;-50
2022/01/19 03:40:46;;;;;;;11.77;9.13;;;1.80;99.90;;;;;;6338889;22;20491;-51
2022/01/19 03:43:12;;;;;;;12.70;8.70;;;1.60;99.90;;;;;;6333597;22;20155;-51
2022/01/19 03:45:38;;;;;;;11.47;9.10;;;1.80;99.90;;;;;;6343200;22;20161;-51
2022/01/19 03:50:50;;;;;;;15.18;8.82;;;1.80;99.90;;;;;;6345051;22;20227;-51
2022/01/19 03:53:15;;;;;;;13.93;10.77;;;1.50;99.90;;;;;;6345521;22;20155;-51
2022/01/19 03:55:41;;;;;;;12.30;8.77;;;1.60;99.90;;;;;;6336674;22;20633;-51
2022/01/19 03:58:07;;;;;;;11.97;9.90;;;1.60;99.90;;;;;;6344751;22;20154;-52
2022/01/19 04:00:41;;;;;;;13.93;9.77;;;1.60;99.90;;;;;;6337067;22;20625;-51
2022/01/19 04:03:07;;;;;;;13.13;9.85;;;1.60;99.90;;;;;;6336489;22;20188;-51
2022/01/19 04:08:17;;;;;;;13.13;9.75;;;1.30;99.90;;;;;;6343822;22;20205;-51
2022/01/19 04:10:42;;;;;;;14.00;9.37;;;1.00;99.90;;;;;;6344780;22;20183;-51
2022/01/19 04:13:23;;;;;;;13.33;9.23;;;1.50;99.90;;;;;;6342537;22;20158;-51
2022/01/19 04:15:51;;;;;;;13.55;9.90;;;1.10;99.90;;;;;;6343840;22;20128;-51
2022/01/19 04:18:17;;;;;;;14.60;9.90;;;1.50;99.90;;;;;;6344651;22;20228;-51
2022/01/19 04:20:47;;;;;;;11.32;8.48;;;1.60;99.90;;;;;;6344697;22;20633;-51
2022/01/19 04:23:13;;;;;;;14.15;9.13;;;1.40;99.90;;;;;;6345185;22;20149;-51
2022/01/19 04:25:38;;;;;;;14.60;10.50;;;1.10;99.90;;;;;;6331958;22;20233;-51
2022/01/19 04:28:07;;;;;;;13.33;9.60;;;1.30;99.90;;;;;;6343923;22;20541;-52
2022/01/19 04:30:34;;;;;;;14.40;10.07;;;1.50;99.90;;;;;;6342740;22;20552;-52
2022/01/19 04:33:06;;;;;;;15.90;10.02;;;1.40;99.90;;;;;;6341747;22;20147;-52
2022/01/19 04:35:43;;;;;;;12.10;9.48;;;1.50;99.90;;;;;;6344954;22;20138;-51
2022/01/19 05:03:27;;;;;;;17.20;11.20;;;1.40;99.90;;;;;;6329634;22;20208;-53
2022/01/19 05:06:00;;;;;;;20.60;12.60;;;0.90;99.90;;;;;;6344755;22;20128;-51
2022/01/19 05:13:39;;;;;;;16.25;12.30;;;1.70;99.90;;;;;;6345391;22;20154;-50
2022/01/19 05:16:05;;;;;;;17.33;12.03;;;1.80;99.90;;;;;;6344884;22;20143;-50
2022/01/19 05:18:31;;;;;;;16.02;11.57;;;1.70;99.90;;;;;;6345475;22;20381;-51
2022/01/19 05:20:57;;;;;;;19.02;12.88;;;1.80;99.90;;;;;;6345493;22;20173;-53
2022/01/19 05:23:23;;;;;;;16.77;11.45;;;1.90;99.90;;;;;;6335937;22;20163;-52
2022/01/19 05:25:49;;;;;;;14.13;10.63;;;2.00;99.90;;;;;;6333711;22;20206;-50
2022/01/19 05:28:15;;;;;;;15.10;10.70;;;1.70;99.90;;;;;;6346641;22;20819;-50
2022/01/19 05:30:41;;;;;;;14.60;10.60;;;1.50;99.90;;;;;;6333670;22;20906;-51
2022/01/19 05:33:08;;;;;;;15.35;10.32;;;1.70;99.90;;;;;;6346836;22;20381;-51
2022/01/19 05:35:33;;;;;;;16.73;11.10;;;2.10;99.90;;;;;;6346562;22;20147;-51
2022/01/19 05:37:59;;;;;;;10.43;9.27;;;1.90;99.90;;;;;;6345352;22;20232;-50
2022/01/19 05:40:25;;;;;;;19.30;11.10;;;1.80;99.90;;;;;;6344658;22;20171;-52
2022/01/19 05:42:50;;;;;;;14.17;10.70;;;1.80;99.90;;;;;;6346341;22;20650;-51
2022/01/19 05:45:17;;;;;;;13.90;10.23;;;1.60;99.90;;;;;;6345402;22;20542;-52
2022/01/19 05:47:45;;;;;;;11.70;9.85;;;1.60;99.90;;;;;;6342784;22;20377;-52
2022/01/19 05:50:12;;;;;;;15.23;11.38;;;1.70;99.90;;;;;;6344403;22;20238;-52
2022/01/19 05:52:38;;;;;;;24.15;9.48;;;1.50;99.90;;;;;;6335591;22;20190;-51
2022/01/19 05:55:04;;;;;;;15.18;10.80;;;1.00;99.90;;;;;;6346199;22;20510;-52
2022/01/19 05:57:31;;;;;;;14.63;10.85;;;1.40;99.90;;;;;;6344464;22;20154;-52
2022/01/19 05:59:57;;;;;;;15.90;10.82;;;1.00;99.90;;;;;;6345051;22;20198;-52
2022/01/19 06:02:23;;;;;;;15.07;10.60;;;1.00;99.90;;;;;;6345027;22;20480;-49
2022/01/19 06:04:49;;;;;;;15.53;10.87;;;1.40;99.90;;;;;;6346060;22;20454;-50
2022/01/19 06:07:15;;;;;;;11.60;9.57;;;1.30;99.90;;;;;;6344520;22;20178;-52
2022/01/19 06:12:09;;;;;;;15.57;11.50;;;1.50;99.90;;;;;;6346448;22;20688;-51
2022/01/19 06:14:36;;;;;;;13.85;10.70;;;1.20;99.90;;;;;;6345955;22;20147;-51
2022/01/19 06:17:04;;;;;;;14.75;9.75;;;0.90;99.90;;;;;;6332131;22;20156;-50
2022/01/19 06:19:30;;;;;;;15.30;9.80;;;1.30;99.90;;;;;;6345589;22;20598;-49
2022/01/19 06:21:55;;;;;;;15.43;10.18;;;1.20;99.90;;;;;;6345103;22;20150;-50
2022/01/19 06:24:21;;;;;;;13.00;9.93;;;1.40;99.90;;;;;;6345845;22;20155;-50
2022/01/19 06:26:47;;;;;;;18.27;12.10;;;1.20;99.90;;;;;;6331764;22;20662;-50
2022/01/19 06:29:14;;;;;;;13.60;10.80;;;1.30;99.90;;;;;;6334107;22;20175;-53
2022/01/19 06:31:40;;;;;;;17.45;12.38;;;1.50;99.90;;;;;;6339346;22;20393;-51
2022/01/19 06:34:06;;;;;;;14.10;10.23;;;1.40;99.90;;;;;;6346246;22;20589;-52
2022/01/19 06:36:31;;;;;;;16.00;10.47;;;1.30;99.90;;;;;;6345298;22;20143;-50
2022/01/19 06:38:57;;;;;;;12.80;10.03;;;1.60;99.90;;;;;;6332399;22;20162;-50
2022/01/19 06:41:23;;;;;;;13.13;9.53;;;1.60;99.90;;;;;;6344316;22;20190;-51
2022/01/19 06:43:50;;;;;;;20.73;11.05;;;1.60;99.90;;;;;;6345566;22;20381;-52
2022/01/19 06:46:16;;;;;;;15.30;10.05;;;1.10;99.90;;;;;;6341389;22;20147;-52
2022/01/19 06:48:41;;;;;;;24.10;12.53;;;1.70;99.90;;;;;;6331290;22;20182;-52
2022/01/19 06:51:07;;;;;;;15.73;12.57;;;2.20;99.90;;;;;;6345344;22;20635;-52
2022/01/19 06:53:33;;;;;;;16.50;11.07;;;2.40;99.90;;;;;;6344213;22;20423;-52
2022/01/19 06:55:58;;;;;;;15.90;12.07;;;2.50;99.90;;;;;;6342839;22;20147;-52
2022/01/19 06:58:25;;;;;;;12.03;9.77;;;1.80;99.90;;;;;;6344519;22;20151;-51
2022/01/19 07:00:51;;;;;;;13.52;9.60;;;2.20;99.90;;;;;;6341839;22;20248;-51
2022/01/19 07:03:17;;;;;;;11.67;9.90;;;1.70;99.90;;;;;;6336804;22;20158;-51
2022/01/19 07:05:42;;;;;;;14.77;11.05;;;1.40;99.90;;;;;;6343546;22;20281;-51
2022/01/19 07:08:08;;;;;;;14.80;11.17;;;1.70;99.90;;;;;;6328396;22;20210;-52
2022/01/19 07:10:34;;;;;;;14.37;10.80;;;1.80;99.90;;;;;;6344783;22;20275;-53
2022/01/19 07:13:01;;;;;;;17.60;10.80;;;1.30;99.90;;;;;;6329292;22;20566;-55
2022/01/19 07:15:27;;;;;;;17.23;11.00;;;1.60;99.90;;;;;;6333972;22;20205;-55
2022/01/19 07:17:52;;;;;;;15.83;11.47;;;1.70;99.90;;;;;;6335360;22;20151;-55
2022/01/19 07:20:18;;;;;;;16.87;11.40;;;1.30;99.90;;;;;;6337744;22;20182;-54
2022/01/19 07:22:44;;;;;;;14.50;10.70;;;1.50;99.90;;;;;;6343704;22;20155;-54
2022/01/19 07:25:10;;;;;;;16.23;10.73;;;0.60;99.90;;;;;;6345450;22;20143;-55
2022/01/19 07:27:36;;;;;;;15.68;12.07;;;1.30;99.90;;;;;;6344540;22;20605;-54
2022/01/19 07:30:03;;;;;;;24.77;11.70;;;1.30;99.90;;;;;;6342135;22;20269;-53
2022/01/19 07:32:33;;;;;;;19.55;11.43;;;1.20;99.90;;;;;;6339427;22;20381;-53
2022/01/19 07:34:59;;;;;;;15.50;11.25;;;1.10;99.90;;;;;;6346101;22;20192;-53
2022/01/19 07:37:25;;;;;;;16.90;10.93;;;1.40;99.90;;;;;;6344738;22;20154;-53
2022/01/19 07:39:51;;;;;;;16.27;10.30;;;1.30;99.90;;;;;;6344439;22;20644;-53
2022/01/19 07:42:16;;;;;;;16.70;12.60;;;1.20;99.90;;;;;;6344715;22;20147;-53
2022/01/19 07:44:42;;;;;;;19.43;11.30;;;1.30;99.90;;;;;;6334825;22;20162;-53
2022/01/19 07:47:08;;;;;;;19.07;11.07;;;1.20;99.90;;;;;;6330744;22;20156;-53
2022/01/19 07:49:33;;;;;;;18.57;11.17;;;1.30;99.90;;;;;;6345349;22;20215;-53
2022/01/19 07:51:59;;;;;;;18.90;11.90;;;1.40;99.90;;;;;;6344897;22;20373;-52
2022/01/19 07:54:25;;;;;;;17.00;11.30;;;1.20;99.90;;;;;;6345133;22;20212;-53
2022/01/19 07:56:50;;;;;;;18.23;12.03;;;1.10;99.90;;;;;;6333253;22;20158;-52
2022/01/19 07:59:17;;;;;;;24.83;12.87;;;1.50;99.90;;;;;;6344391;22;20843;-52
2022/01/19 08:01:43;;;;;;;17.85;12.40;;;1.00;99.90;;;;;;6339696;22;20664;-52
2022/01/19 08:04:09;;;;;;;17.27;13.05;;;1.30;99.90;;;;;;6337762;22;20155;-53
2022/01/19 08:06:35;;;;;;;19.90;12.60;;;1.40;99.90;;;;;;6344663;22;20663;-51
2022/01/19 08:09:01;;;;;;;20.60;12.27;;;1.30;99.90;;;;;;6343963;22;20415;-51
2022/01/19 08:11:26;;;;;;;19.37;14.37;;;1.70;99.90;;;;;;6344909;22;20214;-51
2022/01/19 08:13:52;;;;;;;19.37;13.63;;;1.50;99.90;;;;;;6334325;22;20377;-52
2022/01/19 08:16:18;;;;;;;18.33;12.50;;;1.70;99.90;;;;;;6343756;22;20482;-52
2022/01/19 08:18:44;;;;;;;17.83;12.53;;;1.60;99.90;;;;;;6345215;22;20151;-52
2022/01/19 08:21:10;;;;;;;14.40;11.73;;;1.80;99.90;;;;;;6332720;22;20449;-52
2022/01/19 08:23:36;;;;;;;16.17;11.98;;;1.90;99.90;;;;;;6343233;22;20158;-51
2022/01/19 08:26:02;;;;;;;19.37;13.03;;;1.80;99.90;;;;;;6331623;22;20621;-52
2022/01/19 08:28:27;;;;;;;17.38;13.90;;;2.20;99.90;;;;;;6344526;22;20206;-52
2022/01/19 08:30:53;;;;;;;16.17;11.60;;;2.00;99.90;;;;;;6342368;22;20275;-52
2022/01/19 08:33:19;;;;;;;17.47;11.90;;;2.10;99.90;;;;;;6344729;22;20421;-53
2022/01/19 08:35:44;;;;;;;17.67;12.63;;;1.70;99.90;;;;;;6343329;22;20218;-53
2022/01/19 08:38:10;;;;;;;16.03;12.17;;;1.90;99.90;;;;;;6344801;22;20612;-52
2022/01/19 08:40:37;;;;;;;17.33;12.55;;;2.40;99.90;;;;;;6344561;22;20166;-51
2022/01/19 08:43:03;;;;;;;16.52;12.10;;;2.60;99.90;;;;;;6345111;22;20617;-52
2022/01/19 08:45:29;;;;;;;17.63;12.27;;;2.40;99.90;;;;;;6323028;22;20169;-51
2022/01/19 08:47:55;;;;;;;17.15;12.43;;;2.00;99.90;;;;;;6344015;22;20196;-52
2022/01/19 08:50:20;;;;;;;14.93;11.83;;;2.80;99.90;;;;;;6344817;22;20242;-52
2022/01/19 08:52:46;;;;;;;15.97;12.07;;;2.90;99.90;;;;;;6345178;22;20609;-52
2022/01/19 08:55:12;;;;;;;15.93;11.90;;;2.40;99.90;;;;;;6344181;22;20377;-52
2022/01/19 08:57:38;;;;;;;19.88;12.15;;;3.00;99.90;;;;;;6343456;22;20435;-52
2022/01/19 09:00:10;;;;;;;15.20;11.70;;;2.90;99.90;;;;;;6344322;22;20167;-52
2022/01/19 09:02:36;;;;;;;17.50;13.13;;;3.00;99.90;;;;;;6343956;22;20601;-52
2022/01/19 09:05:04;;;;;;;16.80;12.40;;;3.10;99.90;;;;;;6344589;22;20196;-51
2022/01/19 09:07:29;;;;;;;17.13;12.35;;;3.20;99.90;;;;;;6334886;22;20197;-53
2022/01/19 09:09:55;;;;;;;17.67;12.30;;;3.20;99.90;;;;;;6341662;22;20190;-51
2022/01/19 09:12:21;;;;;;;17.23;12.50;;;3.50;99.90;;;;;;6334257;22;20914;-52
2022/01/19 09:14:47;;;;;;;17.98;12.30;;;3.60;99.90;;;;;;6345407;22;20377;-52
2022/01/19 09:17:13;;;;;;;16.27;12.23;;;3.40;99.90;;;;;;6343041;22;20158;-53
2022/01/19 09:19:39;;;;;;;14.60;11.63;;;3.50;99.90;;;;;;6337206;22;20284;-51
2022/01/19 09:22:07;;;;;;;24.63;16.48;;;3.30;99.90;;;;;;6341542;22;20165;-53
2022/01/19 09:24:34;;;;;;;18.58;12.00;;;4.00;99.90;;;;;;6332420;22;20162;-52
2022/01/19 09:27:00;;;;;;;14.63;10.93;;;4.50;99.90;;;;;;6344470;22;20156;-52
2022/01/19 09:29:26;;;;;;;11.75;10.23;;;5.20;99.90;;;;;;6335755;22;20512;-52
2022/01/19 09:31:55;;;;;;;16.40;10.10;;;6.60;99.90;;;;;;6340426;22;20143;-52
2022/01/19 09:34:21;;;;;;;10.43;9.27;;;7.00;99.90;;;;;;6342365;22;20445;-51
2022/01/19 09:36:48;;;;;;;12.60;10.20;;;7.60;99.90;;;;;;6344223;22;20150;-53
2022/01/19 09:39:17;;;;;;;13.30;10.73;;;7.80;98.30;;;;;;6342783;22;20479;-53
2022/01/19 09:41:43;;;;;;;10.65;9.45;;;8.40;97.20;;;;;;6341859;22;20203;-51
2022/01/19 09:44:09;;;;;;;10.38;9.30;;;8.20;95.70;;;;;;6343949;22;20152;-52
2022/01/19 09:46:36;;;;;;;11.93;9.80;;;9.30;94.60;;;;;;6341985;22;20170;-51
2022/01/19 09:49:03;;;;;;;11.45;9.43;;;9.50;93.50;;;;;;6343408;22;20608;-56
2022/01/19 09:51:29;;;;;;;10.38;9.25;;;10.10;92.20;;;;;;6344170;22;20274;-55
2022/01/19 09:53:55;;;;;;;10.80;9.70;;;11.40;90.20;;;;;;6340518;22;20158;-54
2022/01/19 09:56:20;;;;;;;10.63;9.53;;;11.50;86.50;;;;;;6335325;22;20395;-53
2022/01/19 09:58:47;;;;;;;9.53;8.60;;;12.00;86.30;;;;;;6343624;22;20444;-52
2022/01/19 10:01:18;;;;;;;9.70;8.48;;;11.60;84.70;;;;;;6344105;22;20185;-52
2022/01/19 10:03:44;;;;;;;10.40;9.40;;;11.60;83.80;;;;;;6346116;22;20221;-52
2022/01/19 10:06:11;;;;;;;9.60;8.65;;;12.30;82.50;;;;;;6346220;22;20227;-53
2022/01/19 10:08:43;;;;;;;11.43;9.43;;;13.00;80.10;;;;;;6346036;22;20171;-52
2022/01/19 10:11:28;;;;;;;10.85;9.43;;;12.80;80.00;;;;;;6343131;22;20209;-52
2022/01/19 10:17:02;;;;;;;13.10;9.95;;;12.40;78.10;;;;;;6342746;22;20201;-52
2022/01/19 10:19:50;;;;;;;9.07;8.20;;;12.50;78.30;;;;;;6344844;22;20242;-52
2022/01/19 10:22:20;;;;;;;10.35;9.25;;;11.60;78.10;;;;;;6345625;22;20600;-52
2022/01/19 10:24:51;;;;;;;10.40;9.13;;;10.80;82.10;;;;;;6343202;22;20163;-53
2022/01/19 10:27:17;;;;;;;10.15;8.55;;;10.40;83.90;;;;;;6344697;22;20603;-52
2022/01/19 10:29:43;;;;;;;13.63;9.60;;;10.30;85.00;;;;;;6331865;22;20192;-54
2022/01/19 10:32:09;;;;;;;11.90;10.30;;;10.40;85.70;;;;;;6331764;22;20158;-53
2022/01/19 10:34:35;;;;;;;14.10;9.00;;;11.50;84.30;;;;;;6333993;22;20377;-51
2022/01/19 10:37:02;;;;;;;10.37;9.33;;;12.20;81.90;;;;;;6334605;22;20162;-53
